createdAt,value
2019-01-11T00:00:25.514Z,946.25
2019-01-11T00:01:33.590Z,946.22
2019-01-11T00:02:41.686Z,946.26
2019-01-11T00:03:49.684Z,946.25
2019-01-11T00:04:57.734Z,946.24
2019-01-11T00:06:05.797Z,946.24
2019-01-11T00:07:13.854Z,946.23
2019-01-11T00:08:21.952Z,946.27
2019-01-11T00:09:29.971Z,946.23
2019-01-11T00:10:38.034Z,946.22
2019-01-11T00:11:46.062Z,946.19
2019-01-11T00:12:54.974Z,946.21
2019-01-11T00:14:02.280Z,946.17
2019-01-11T00:15:10.668Z,946.22
2019-01-11T00:16:18.730Z,946.21
2019-01-11T00:17:26.346Z,946.19
2019-01-11T00:18:34.488Z,946.20
2019-01-11T00:19:42.457Z,946.19
2019-01-11T00:20:50.478Z,946.19
2019-01-11T00:21:58.575Z,946.17
2019-01-11T00:23:06.614Z,946.18
2019-01-11T00:24:14.748Z,946.16
2019-01-11T00:25:22.721Z,946.15
2019-01-11T00:26:30.757Z,946.14
2019-01-11T00:27:38.818Z,946.14
2019-01-11T00:28:46.975Z,946.13
2019-01-11T00:29:55.036Z,946.12
2019-01-11T00:31:02.992Z,946.13
2019-01-11T00:32:11.031Z,946.18
2019-01-11T00:33:19.097Z,946.21
2019-01-11T00:34:27.147Z,946.18
2019-01-11T00:35:35.306Z,946.19
2019-01-11T00:36:43.246Z,946.18
2019-01-11T00:37:51.362Z,946.15
2019-01-11T00:38:59.640Z,946.13
2019-01-11T00:40:07.417Z,946.12
2019-01-11T00:41:15.565Z,946.16
2019-01-11T00:42:23.615Z,946.15
2019-01-11T00:43:31.566Z,946.15
2019-01-11T00:44:39.751Z,946.12
2019-01-11T00:45:47.689Z,946.12
2019-01-11T00:46:55.850Z,946.11
2019-01-11T00:48:04.370Z,946.12
2019-01-11T00:49:13.584Z,946.15
2019-01-11T00:50:19.906Z,946.17
2019-01-11T00:51:27.962Z,946.14
2019-01-11T00:52:36.116Z,946.20
2019-01-11T00:53:44.068Z,946.15
2019-01-11T00:54:52.115Z,946.14
2019-01-11T00:56:00.211Z,946.14
2019-01-11T00:57:08.240Z,946.14
2019-01-11T00:58:16.373Z,946.14
2019-01-11T00:59:24.354Z,946.18
2019-01-11T01:00:32.486Z,946.20
2019-01-11T01:01:40.435Z,946.24
2019-01-11T01:02:48.618Z,946.28
2019-01-11T01:03:56.546Z,946.28
2019-01-11T01:05:04.601Z,946.26
2019-01-11T01:06:12.654Z,946.26
2019-01-11T01:07:20.680Z,946.29
2019-01-11T01:08:30.558Z,946.33
2019-01-11T01:09:36.803Z,946.33
2019-01-11T01:10:44.873Z,946.33
2019-01-11T01:11:52.914Z,946.31
2019-01-11T01:13:01.430Z,946.33
2019-01-11T01:14:09.019Z,946.38
2019-01-11T01:15:17.071Z,946.37
2019-01-11T01:16:25.230Z,946.41
2019-01-11T01:17:33.178Z,946.40
2019-01-11T01:18:41.322Z,946.41
2019-01-11T01:19:49.296Z,946.41
2019-01-11T01:20:57.337Z,946.43
2019-01-11T01:22:05.395Z,946.45
2019-01-11T01:23:13.447Z,946.44
2019-01-11T01:24:21.606Z,946.48
2019-01-11T01:25:29.562Z,946.45
2019-01-11T01:26:37.598Z,946.47
2019-01-11T01:27:45.654Z,946.52
2019-01-11T01:28:53.706Z,946.53
2019-01-11T01:30:01.861Z,946.54
2019-01-11T01:31:09.818Z,946.55
2019-01-11T01:32:17.955Z,946.56
2019-01-11T01:33:25.917Z,946.55
2019-01-11T01:34:33.969Z,946.51
2019-01-11T01:35:42.118Z,946.55
2019-01-11T01:36:50.079Z,946.57
2019-01-11T01:37:58.136Z,946.59
2019-01-11T01:39:06.179Z,946.65
2019-01-11T01:40:14.238Z,946.61
2019-01-11T01:41:22.375Z,946.61
2019-01-11T01:42:30.320Z,946.63
2019-01-11T01:43:38.387Z,946.60
2019-01-11T01:44:46.435Z,946.59
2019-01-11T01:45:54.491Z,946.61
2019-01-11T01:47:02.670Z,946.62
2019-01-11T01:48:10.611Z,946.67
2019-01-11T01:49:18.637Z,946.60
2019-01-11T01:50:26.673Z,946.64
2019-01-11T01:51:34.744Z,946.62
2019-01-11T01:52:42.877Z,946.58
2019-01-11T01:53:50.809Z,946.57
2019-01-11T01:54:58.901Z,946.58
2019-01-11T01:56:06.960Z,946.61
2019-01-11T01:57:15.019Z,946.62
2019-01-11T01:58:23.161Z,946.61
2019-01-11T01:59:31.110Z,946.58
2019-01-11T02:00:39.149Z,946.55
2019-01-11T02:01:47.199Z,946.60
2019-01-11T02:02:55.359Z,946.60
2019-01-11T02:04:03.309Z,946.67
2019-01-11T02:05:11.363Z,946.66
2019-01-11T02:06:19.414Z,946.66
2019-01-11T02:07:27.465Z,946.65
2019-01-11T02:08:35.512Z,946.65
2019-01-11T02:09:43.575Z,946.63
2019-01-11T02:10:51.625Z,946.63
2019-01-11T02:11:59.680Z,946.60
2019-01-11T02:13:07.814Z,946.58
2019-01-11T02:14:15.787Z,946.61
2019-01-11T02:15:23.832Z,946.61
2019-01-11T02:16:31.869Z,946.64
2019-01-11T02:17:40.031Z,946.63
2019-01-11T02:18:48.074Z,946.58
2019-01-11T02:19:56.026Z,946.62
2019-01-11T02:21:04.076Z,946.63
2019-01-11T02:22:12.130Z,946.61
2019-01-11T02:23:20.185Z,946.61
2019-01-11T02:24:28.282Z,946.61
2019-01-11T02:25:36.283Z,946.61
2019-01-11T02:26:44.344Z,946.59
2019-01-11T02:27:52.397Z,946.61
2019-01-11T02:29:00.453Z,946.62
2019-01-11T02:30:08.588Z,946.63
2019-01-11T02:31:16.538Z,946.67
2019-01-11T02:32:24.604Z,946.67
2019-01-11T02:33:32.741Z,946.66
2019-01-11T02:34:40.678Z,946.63
2019-01-11T02:35:48.845Z,946.65
2019-01-11T02:36:56.800Z,946.66
2019-01-11T02:38:04.853Z,946.68
2019-01-11T02:39:12.909Z,946.61
2019-01-11T02:40:20.932Z,946.60
2019-01-11T02:41:29.097Z,946.55
2019-01-11T02:42:37.057Z,946.59
2019-01-11T02:43:45.105Z,946.59
2019-01-11T02:44:53.147Z,946.54
2019-01-11T02:46:01.186Z,946.52
2019-01-11T02:47:09.351Z,946.47
2019-01-11T02:48:17.321Z,946.52
2019-01-11T02:49:25.470Z,946.53
2019-01-11T02:50:33.415Z,946.55
2019-01-11T02:51:41.444Z,946.54
2019-01-11T02:52:49.622Z,946.55
2019-01-11T02:53:57.565Z,946.54
2019-01-11T02:55:05.609Z,946.52
2019-01-11T02:56:13.676Z,946.53
2019-01-11T02:57:21.820Z,946.48
2019-01-11T02:58:29.765Z,946.51
2019-01-11T02:59:37.828Z,946.52
2019-01-11T03:00:45.884Z,946.51
2019-01-11T03:01:53.936Z,946.50
2019-01-11T03:03:02.069Z,946.52
2019-01-11T03:04:10.043Z,946.51
2019-01-11T03:05:18.183Z,946.60
2019-01-11T03:06:26.137Z,946.57
2019-01-11T03:07:34.286Z,946.52
2019-01-11T03:08:42.233Z,946.50
2019-01-11T03:09:50.281Z,946.54
2019-01-11T03:10:58.327Z,946.55
2019-01-11T03:12:06.396Z,946.56
2019-01-11T03:13:14.501Z,946.58
2019-01-11T03:14:22.496Z,946.56
2019-01-11T03:15:30.536Z,946.60
2019-01-11T03:16:38.599Z,946.60
2019-01-11T03:17:46.747Z,946.59
2019-01-11T03:18:54.709Z,946.55
2019-01-11T03:20:02.772Z,946.53
2019-01-11T03:21:10.886Z,946.52
2019-01-11T03:22:18.870Z,946.55
2019-01-11T03:23:27.015Z,946.60
2019-01-11T03:24:34.972Z,946.54
2019-01-11T03:25:43.008Z,946.60
2019-01-11T03:26:51.080Z,946.60
2019-01-11T03:27:59.094Z,946.57
2019-01-11T03:29:07.264Z,946.60
2019-01-11T03:30:15.237Z,946.58
2019-01-11T03:31:23.276Z,946.56
2019-01-11T03:32:31.316Z,946.55
2019-01-11T03:33:39.386Z,946.53
2019-01-11T03:34:47.529Z,946.58
2019-01-11T03:35:55.482Z,946.56
2019-01-11T03:37:03.636Z,946.53
2019-01-11T03:38:11.617Z,946.52
2019-01-11T03:39:19.641Z,946.52
2019-01-11T03:40:27.802Z,946.54
2019-01-11T03:41:35.745Z,946.57
2019-01-11T03:42:43.806Z,946.59
2019-01-11T03:43:51.858Z,946.58
2019-01-11T03:44:59.900Z,946.57
2019-01-11T03:46:08.054Z,946.54
2019-01-11T03:47:16.016Z,946.56
2019-01-11T03:48:24.054Z,946.53
2019-01-11T03:49:32.099Z,946.55
2019-01-11T03:50:40.159Z,946.57
2019-01-11T03:51:48.284Z,946.57
2019-01-11T03:52:56.324Z,946.60
2019-01-11T03:54:04.320Z,946.59
2019-01-11T03:55:12.382Z,946.56
2019-01-11T03:56:20.419Z,946.63
2019-01-11T03:57:28.529Z,946.63
2019-01-11T03:58:36.538Z,946.62
2019-01-11T03:59:44.591Z,946.65
2019-01-11T04:00:52.632Z,946.65
2019-01-11T04:02:00.692Z,946.63
2019-01-11T04:03:08.809Z,946.62
2019-01-11T04:04:16.800Z,946.69
2019-01-11T04:05:24.854Z,946.68
2019-01-11T04:06:32.903Z,946.65
2019-01-11T04:07:41.036Z,946.67
2019-01-11T04:08:49.000Z,946.73
2019-01-11T04:09:57.058Z,946.72
2019-01-11T04:11:05.127Z,946.69
2019-01-11T04:12:13.164Z,946.68
2019-01-11T04:13:21.254Z,946.68
2019-01-11T04:14:29.254Z,946.71
2019-01-11T04:15:37.311Z,946.69
2019-01-11T04:16:45.379Z,946.71
2019-01-11T04:17:53.537Z,946.73
2019-01-11T04:19:01.465Z,946.72
2019-01-11T04:20:09.531Z,946.74
2019-01-11T04:21:17.586Z,946.74
2019-01-11T04:22:25.643Z,946.76
2019-01-11T04:23:33.757Z,946.73
2019-01-11T04:24:41.741Z,946.74
2019-01-11T04:25:49.795Z,946.78
2019-01-11T04:26:57.855Z,946.74
2019-01-11T04:28:05.901Z,946.74
2019-01-11T04:29:14.054Z,946.77
2019-01-11T04:30:22.030Z,946.74
2019-01-11T04:31:30.072Z,946.73
2019-01-11T04:32:38.136Z,946.73
2019-01-11T04:33:46.171Z,946.76
2019-01-11T04:34:54.274Z,946.74
2019-01-11T04:36:02.266Z,946.74
2019-01-11T04:37:10.325Z,946.76
2019-01-11T04:38:18.481Z,946.77
2019-01-11T04:39:26.524Z,946.77
2019-01-11T04:40:34.571Z,946.79
2019-01-11T04:41:42.557Z,946.79
2019-01-11T04:42:50.589Z,946.79
2019-01-11T04:43:58.640Z,946.86
2019-01-11T04:45:06.785Z,946.85
2019-01-11T04:46:14.755Z,946.90
2019-01-11T04:47:22.785Z,946.89
2019-01-11T04:48:30.853Z,946.92
2019-01-11T04:49:38.905Z,946.92
2019-01-11T04:50:47.064Z,946.91
2019-01-11T04:51:55.021Z,946.91
2019-01-11T04:53:03.182Z,946.90
2019-01-11T04:54:11.120Z,946.91
2019-01-11T04:55:19.170Z,946.90
2019-01-11T04:56:27.319Z,946.91
2019-01-11T04:57:35.297Z,946.90
2019-01-11T04:58:43.333Z,946.87
2019-01-11T04:59:51.366Z,946.93
2019-01-11T05:00:59.437Z,946.92
2019-01-11T05:02:07.605Z,946.90
2019-01-11T05:03:15.562Z,946.88
2019-01-11T05:04:23.603Z,946.86
2019-01-11T05:05:31.635Z,946.85
2019-01-11T05:06:39.712Z,946.83
2019-01-11T05:07:47.858Z,946.84
2019-01-11T05:08:55.812Z,946.88
2019-01-11T05:10:03.856Z,946.83
2019-01-11T05:11:11.914Z,946.79
2019-01-11T05:12:19.981Z,946.84
2019-01-11T05:13:28.014Z,946.80
2019-01-11T05:14:36.072Z,946.80
2019-01-11T05:15:44.148Z,946.82
2019-01-11T05:16:52.203Z,946.80
2019-01-11T05:18:00.336Z,946.82
2019-01-11T05:19:08.288Z,946.81
2019-01-11T05:20:16.913Z,946.76
2019-01-11T05:21:24.398Z,946.86
2019-01-11T05:22:32.553Z,946.83
2019-01-11T05:23:40.477Z,946.83
2019-01-11T05:24:48.561Z,946.86
2019-01-11T05:25:56.619Z,946.84
2019-01-11T05:27:04.668Z,946.85
2019-01-11T05:28:13.613Z,946.87
2019-01-11T05:29:20.771Z,946.90
2019-01-11T05:30:28.829Z,946.90
2019-01-11T05:31:36.908Z,946.87
2019-01-11T05:32:44.967Z,946.87
2019-01-11T05:33:52.980Z,946.85
2019-01-11T05:35:01.026Z,946.87
2019-01-11T05:36:09.107Z,946.84
2019-01-11T05:37:17.134Z,946.84
2019-01-11T05:38:25.289Z,946.89
2019-01-11T05:39:33.272Z,946.94
2019-01-11T05:40:41.279Z,946.91
2019-01-11T05:41:49.365Z,946.85
2019-01-11T05:42:57.451Z,946.90
2019-01-11T05:44:05.455Z,946.90
2019-01-11T05:45:13.518Z,946.90
2019-01-11T05:46:21.589Z,946.87
2019-01-11T05:47:30.239Z,946.85
2019-01-11T05:48:37.682Z,946.84
2019-01-11T05:49:45.718Z,946.82
2019-01-11T05:50:53.770Z,946.85
2019-01-11T05:52:01.880Z,946.82
2019-01-11T05:53:09.967Z,946.82
2019-01-11T05:54:18.048Z,946.83
2019-01-11T05:55:25.981Z,946.79
2019-01-11T05:56:34.192Z,946.79
2019-01-11T05:57:42.100Z,946.76
2019-01-11T05:58:50.253Z,946.73
2019-01-11T05:59:58.218Z,946.75
2019-01-11T06:01:06.262Z,946.72
2019-01-11T06:02:14.309Z,946.72
2019-01-11T06:03:22.374Z,946.73
2019-01-11T06:04:30.488Z,946.71
2019-01-11T06:05:38.469Z,946.78
2019-01-11T06:06:46.524Z,946.78
2019-01-11T06:07:54.799Z,946.80
2019-01-11T06:09:02.620Z,946.78
2019-01-11T06:10:11.130Z,946.77
2019-01-11T06:11:18.750Z,946.83
2019-01-11T06:12:26.791Z,946.81
2019-01-11T06:13:34.850Z,946.84
2019-01-11T06:14:42.905Z,946.83
2019-01-11T06:15:51.015Z,946.80
2019-01-11T06:16:59.014Z,946.80
2019-01-11T06:18:07.048Z,946.79
2019-01-11T06:19:15.115Z,946.80
2019-01-11T06:20:23.154Z,946.82
2019-01-11T06:21:31.268Z,946.85
2019-01-11T06:22:39.266Z,946.87
2019-01-11T06:23:47.556Z,946.86
2019-01-11T06:24:55.453Z,946.87
2019-01-11T06:26:03.507Z,946.91
2019-01-11T06:27:11.651Z,946.92
2019-01-11T06:28:19.538Z,946.93
2019-01-11T06:29:27.572Z,946.96
2019-01-11T06:30:35.645Z,946.95
2019-01-11T06:31:43.678Z,946.97
2019-01-11T06:32:51.785Z,946.98
2019-01-11T06:33:59.782Z,947.02
2019-01-11T06:35:07.876Z,947.04
2019-01-11T06:36:15.895Z,947.06
2019-01-11T06:37:23.947Z,947.04
2019-01-11T06:38:32.002Z,947.06
2019-01-11T06:39:40.073Z,947.07
2019-01-11T06:40:48.111Z,947.08
2019-01-11T06:41:56.267Z,947.05
2019-01-11T06:43:04.269Z,947.06
2019-01-11T06:44:12.273Z,947.09
2019-01-11T06:45:20.328Z,947.10
2019-01-11T06:46:28.390Z,947.07
2019-01-11T06:47:36.516Z,947.07
2019-01-11T06:48:44.494Z,947.12
2019-01-11T06:49:52.536Z,947.12
2019-01-11T06:51:00.571Z,947.15
2019-01-11T06:52:08.631Z,947.15
2019-01-11T06:53:16.793Z,947.17
2019-01-11T06:54:24.811Z,947.18
2019-01-11T06:55:32.810Z,947.23
2019-01-11T06:56:40.840Z,947.24
2019-01-11T06:57:48.937Z,947.27
2019-01-11T06:58:57.049Z,947.30
2019-01-11T07:00:05.015Z,947.28
2019-01-11T07:01:13.065Z,947.30
2019-01-11T07:02:22.356Z,947.32
2019-01-11T07:03:29.179Z,947.34
2019-01-11T07:04:37.320Z,947.39
2019-01-11T07:05:45.280Z,947.33
2019-01-11T07:06:53.385Z,947.34
2019-01-11T07:08:01.350Z,947.34
2019-01-11T07:09:09.426Z,947.38
2019-01-11T07:10:17.583Z,947.38
2019-01-11T07:11:25.539Z,947.39
2019-01-11T07:12:33.695Z,947.44
2019-01-11T07:13:41.624Z,947.41
2019-01-11T07:14:49.699Z,947.37
2019-01-11T07:15:57.893Z,947.37
2019-01-11T07:17:05.794Z,947.49
2019-01-11T07:18:13.860Z,947.44
2019-01-11T07:19:21.912Z,947.44
2019-01-11T07:20:29.965Z,947.47
2019-01-11T07:21:38.113Z,947.44
2019-01-11T07:22:46.068Z,947.46
2019-01-11T07:23:54.120Z,947.42
2019-01-11T07:25:02.168Z,947.44
2019-01-11T07:26:10.225Z,947.49
2019-01-11T07:27:18.427Z,947.46
2019-01-11T07:28:26.430Z,947.44
2019-01-11T07:29:34.403Z,947.46
2019-01-11T07:30:42.444Z,947.43
2019-01-11T07:31:50.479Z,947.43
2019-01-11T07:32:58.581Z,947.43
2019-01-11T07:34:06.589Z,947.42
2019-01-11T07:35:14.670Z,947.40
2019-01-11T07:36:22.757Z,947.42
2019-01-11T07:37:30.768Z,947.42
2019-01-11T07:38:38.802Z,947.45
2019-01-11T07:39:46.861Z,947.47
2019-01-11T07:40:54.922Z,947.52
2019-01-11T07:42:02.971Z,947.54
2019-01-11T07:43:11.052Z,947.57
2019-01-11T07:44:19.077Z,947.52
2019-01-11T07:45:27.174Z,947.52
2019-01-11T07:46:35.176Z,947.51
2019-01-11T07:47:43.324Z,947.51
2019-01-11T07:48:51.270Z,947.51
2019-01-11T07:49:59.349Z,947.51
2019-01-11T07:51:07.391Z,947.53
2019-01-11T07:52:15.488Z,947.49
2019-01-11T07:53:23.594Z,947.54
2019-01-11T07:54:31.607Z,947.49
2019-01-11T07:55:39.593Z,947.51
2019-01-11T07:56:47.707Z,947.47
2019-01-11T07:57:55.699Z,947.44
2019-01-11T07:59:03.856Z,947.42
2019-01-11T08:00:11.817Z,947.39
2019-01-11T08:01:19.916Z,947.36
2019-01-11T08:02:27.910Z,947.36
2019-01-11T08:03:35.988Z,947.40
2019-01-11T08:04:44.133Z,947.40
2019-01-11T08:05:52.088Z,947.38
2019-01-11T08:07:00.137Z,947.36
2019-01-11T08:08:08.187Z,947.39
2019-01-11T08:09:16.257Z,947.41
2019-01-11T08:10:24.398Z,947.40
2019-01-11T08:11:32.347Z,947.41
2019-01-11T08:12:40.439Z,947.40
2019-01-11T08:13:48.476Z,947.46
2019-01-11T08:14:56.611Z,947.43
2019-01-11T08:16:04.682Z,947.45
2019-01-11T08:17:12.615Z,947.47
2019-01-11T08:18:20.656Z,947.49
2019-01-11T08:19:28.721Z,947.48
2019-01-11T08:20:36.775Z,947.49
2019-01-11T08:21:44.968Z,947.46
2019-01-11T08:22:52.893Z,947.51
2019-01-11T08:24:00.918Z,947.49
2019-01-11T08:25:09.008Z,947.50
2019-01-11T08:26:17.056Z,947.50
2019-01-11T08:27:25.189Z,947.51
2019-01-11T08:28:33.156Z,947.49
2019-01-11T08:29:41.179Z,947.51
2019-01-11T08:30:49.350Z,947.52
2019-01-11T08:31:57.311Z,947.53
2019-01-11T08:33:05.407Z,947.59
2019-01-11T08:34:13.416Z,947.57
2019-01-11T08:35:21.475Z,947.58
2019-01-11T08:36:29.526Z,947.57
2019-01-11T08:37:37.681Z,947.56
2019-01-11T08:38:45.626Z,947.56
2019-01-11T08:39:53.702Z,947.58
2019-01-11T08:41:01.773Z,947.60
2019-01-11T08:42:09.798Z,947.60
2019-01-11T08:43:17.971Z,947.61
2019-01-11T08:44:25.913Z,947.61
2019-01-11T08:45:33.971Z,947.62
2019-01-11T08:46:42.125Z,947.63
2019-01-11T08:47:50.074Z,947.59
2019-01-11T08:48:58.184Z,947.61
2019-01-11T08:50:06.178Z,947.61
2019-01-11T08:51:14.229Z,947.60
2019-01-11T08:52:22.299Z,947.60
2019-01-11T08:53:30.351Z,947.62
2019-01-11T08:54:38.516Z,947.63
2019-01-11T08:55:46.462Z,947.69
2019-01-11T08:56:54.516Z,947.68
2019-01-11T08:58:02.573Z,947.73
2019-01-11T08:59:10.602Z,947.73
2019-01-11T09:00:18.774Z,947.74
2019-01-11T09:01:26.739Z,947.77
2019-01-11T09:02:34.853Z,947.79
2019-01-11T09:03:42.848Z,947.75
2019-01-11T09:04:50.875Z,947.73
2019-01-11T09:05:59.055Z,947.73
2019-01-11T09:07:07.020Z,947.72
2019-01-11T09:08:15.074Z,947.70
2019-01-11T09:09:23.137Z,947.69
2019-01-11T09:10:31.173Z,947.76
2019-01-11T09:11:39.326Z,947.76
2019-01-11T09:12:47.295Z,947.75
2019-01-11T09:13:55.355Z,947.74
2019-01-11T09:15:03.396Z,947.75
2019-01-11T09:16:11.431Z,947.72
2019-01-11T09:17:19.603Z,947.79
2019-01-11T09:18:27.569Z,947.82
2019-01-11T09:19:35.649Z,947.85
2019-01-11T09:20:43.668Z,947.88
2019-01-11T09:21:51.733Z,947.86
2019-01-11T09:22:59.831Z,947.85
2019-01-11T09:24:07.849Z,947.86
2019-01-11T09:25:15.903Z,947.81
2019-01-11T09:26:23.974Z,947.75
2019-01-11T09:27:32.069Z,947.77
2019-01-11T09:28:40.082Z,947.78
2019-01-11T09:29:48.123Z,947.77
2019-01-11T09:30:56.209Z,947.78
2019-01-11T09:32:04.268Z,947.79
2019-01-11T09:33:12.387Z,947.80
2019-01-11T09:34:20.368Z,947.79
2019-01-11T09:35:28.402Z,947.85
2019-01-11T09:36:36.479Z,947.87
2019-01-11T09:37:44.522Z,947.86
2019-01-11T09:38:52.685Z,947.88
2019-01-11T09:40:00.636Z,947.88
2019-01-11T09:41:08.701Z,947.93
2019-01-11T09:42:16.751Z,947.96
2019-01-11T09:43:24.806Z,947.98
2019-01-11T09:44:32.948Z,948.01
2019-01-11T09:45:40.887Z,948.01
2019-01-11T09:46:48.973Z,948.01
2019-01-11T09:47:57.039Z,947.99
2019-01-11T09:49:05.182Z,947.96
2019-01-11T09:50:13.243Z,947.96
2019-01-11T09:51:21.203Z,948.00
2019-01-11T09:52:29.267Z,947.94
2019-01-11T09:53:37.318Z,948.00
2019-01-11T09:54:46.087Z,948.03
2019-01-11T09:55:53.548Z,948.01
2019-01-11T09:57:01.496Z,947.98
2019-01-11T09:58:09.557Z,948.01
2019-01-11T09:59:17.619Z,947.99
2019-01-11T10:00:26.818Z,948.03
2019-01-11T10:01:33.820Z,948.03
2019-01-11T10:02:41.805Z,948.03
2019-01-11T10:03:49.837Z,947.99
2019-01-11T10:04:57.991Z,947.96
2019-01-11T10:06:06.046Z,947.95
2019-01-11T10:07:14.106Z,947.93
2019-01-11T10:08:22.076Z,947.88
2019-01-11T10:09:30.135Z,947.93
2019-01-11T10:10:38.172Z,947.96
2019-01-11T10:11:46.236Z,947.95
2019-01-11T10:12:54.347Z,947.94
2019-01-11T10:14:02.364Z,947.96
2019-01-11T10:15:10.414Z,947.97
2019-01-11T10:16:18.462Z,947.97
2019-01-11T10:17:26.625Z,948.01
2019-01-11T10:18:34.597Z,948.02
2019-01-11T10:19:42.639Z,948.00
2019-01-11T10:20:50.714Z,947.97
2019-01-11T10:21:58.757Z,947.99
2019-01-11T10:23:06.852Z,947.99
2019-01-11T10:24:14.876Z,948.00
2019-01-11T10:25:22.929Z,947.98
2019-01-11T10:26:31.006Z,947.97
2019-01-11T10:27:39.133Z,947.93
2019-01-11T10:28:47.154Z,947.95
2019-01-11T10:29:55.164Z,947.89
2019-01-11T10:31:03.223Z,947.89
2019-01-11T10:32:11.261Z,947.96
2019-01-11T10:33:19.430Z,947.92
2019-01-11T10:34:27.395Z,947.94
2019-01-11T10:35:35.460Z,947.92
2019-01-11T10:36:43.506Z,947.88
2019-01-11T10:37:51.610Z,947.88
2019-01-11T10:38:59.632Z,947.89
2019-01-11T10:40:07.693Z,947.93
2019-01-11T10:41:15.739Z,947.94
2019-01-11T10:42:23.794Z,948.00
2019-01-11T10:43:31.866Z,948.01
2019-01-11T10:44:39.917Z,947.97
2019-01-11T10:45:47.959Z,947.97
2019-01-11T10:46:56.043Z,947.95
2019-01-11T10:48:04.133Z,948.01
2019-01-11T10:49:12.149Z,948.01
2019-01-11T10:50:20.212Z,948.00
2019-01-11T10:51:28.372Z,947.96
2019-01-11T10:52:36.437Z,947.97
2019-01-11T10:53:44.397Z,947.97
2019-01-11T10:54:52.440Z,947.95
2019-01-11T10:56:00.490Z,947.98
2019-01-11T10:57:08.567Z,947.96
2019-01-11T10:58:16.722Z,947.96
2019-01-11T10:59:24.688Z,947.93
2019-01-11T11:00:32.754Z,947.87
2019-01-11T11:01:40.775Z,947.84
2019-01-11T11:02:48.876Z,947.79
2019-01-11T11:03:57.015Z,947.74
2019-01-11T11:05:04.991Z,947.75
2019-01-11T11:06:13.068Z,947.79
2019-01-11T11:07:21.199Z,947.77
2019-01-11T11:08:29.181Z,947.80
2019-01-11T11:09:37.321Z,947.78
2019-01-11T11:10:45.292Z,947.85
2019-01-11T11:11:53.368Z,947.88
2019-01-11T11:13:01.378Z,947.88
2019-01-11T11:14:09.474Z,947.86
2019-01-11T11:15:17.629Z,947.78
2019-01-11T11:16:25.597Z,947.74
2019-01-11T11:17:33.647Z,947.74
2019-01-11T11:18:41.724Z,947.74
2019-01-11T11:19:49.768Z,947.77
2019-01-11T11:20:57.924Z,947.77
2019-01-11T11:22:05.910Z,947.78
2019-01-11T11:23:13.996Z,947.81
2019-01-11T11:24:22.021Z,947.79
2019-01-11T11:25:30.226Z,947.73
2019-01-11T11:26:38.283Z,947.73
2019-01-11T11:27:46.251Z,947.68
2019-01-11T11:28:54.235Z,947.73
2019-01-11T11:30:02.312Z,947.75
2019-01-11T11:31:10.382Z,947.73
2019-01-11T11:32:18.535Z,947.75
2019-01-11T11:33:26.500Z,947.71
2019-01-11T11:34:34.558Z,947.74
2019-01-11T11:35:42.622Z,947.73
2019-01-11T11:36:50.682Z,947.76
2019-01-11T11:37:58.825Z,947.79
2019-01-11T11:39:06.805Z,947.78
2019-01-11T11:40:14.854Z,947.78
2019-01-11T11:41:22.921Z,947.74
2019-01-11T11:42:31.010Z,947.69
2019-01-11T11:43:39.035Z,947.66
2019-01-11T11:44:47.108Z,947.60
2019-01-11T11:45:55.187Z,947.59
2019-01-11T11:47:03.233Z,947.56
2019-01-11T11:48:11.343Z,947.55
2019-01-11T11:49:19.342Z,947.53
2019-01-11T11:50:27.401Z,947.47
2019-01-11T11:51:41.049Z,947.49
2019-01-11T11:52:43.568Z,947.47
2019-01-11T11:53:51.678Z,947.45
2019-01-11T11:54:59.635Z,947.45
2019-01-11T11:56:07.709Z,947.43
2019-01-11T11:57:15.774Z,947.41
2019-01-11T11:58:23.818Z,947.43
2019-01-11T11:59:31.979Z,947.43
2019-01-11T12:00:39.933Z,947.41
2019-01-11T12:01:47.999Z,947.40
2019-01-11T12:02:56.060Z,947.39
2019-01-11T12:04:04.113Z,947.39
2019-01-11T12:05:12.437Z,947.39
2019-01-11T12:06:20.232Z,947.38
2019-01-11T12:07:28.411Z,947.33
2019-01-11T12:08:36.365Z,947.35
2019-01-11T12:09:44.423Z,947.27
2019-01-11T12:10:52.588Z,947.27
2019-01-11T12:12:00.564Z,947.32
2019-01-11T12:13:08.590Z,947.26
2019-01-11T12:14:16.648Z,947.27
2019-01-11T12:15:24.700Z,947.27
2019-01-11T12:16:32.861Z,947.26
2019-01-11T12:17:40.807Z,947.23
2019-01-11T12:18:48.882Z,947.22
2019-01-11T12:19:57.069Z,947.27
2019-01-11T12:21:04.990Z,947.25
2019-01-11T12:22:13.166Z,947.27
2019-01-11T12:23:21.145Z,947.31
2019-01-11T12:24:29.188Z,947.30
2019-01-11T12:25:37.245Z,947.31
2019-01-11T12:26:45.306Z,947.29
2019-01-11T12:27:53.441Z,947.30
2019-01-11T12:29:01.399Z,947.32
2019-01-11T12:30:09.479Z,947.35
2019-01-11T12:31:17.553Z,947.32
2019-01-11T12:32:25.600Z,947.30
2019-01-11T12:33:33.667Z,947.23
2019-01-11T12:34:41.707Z,947.24
2019-01-11T12:35:49.780Z,947.20
2019-01-11T12:36:57.835Z,947.23
2019-01-11T12:38:05.993Z,947.24
2019-01-11T12:39:13.953Z,947.29
2019-01-11T12:40:22.008Z,947.27
2019-01-11T12:41:30.061Z,947.23
2019-01-11T12:42:38.171Z,947.24
2019-01-11T12:43:46.206Z,947.27
2019-01-11T12:44:54.245Z,947.22
2019-01-11T12:46:02.299Z,947.24
2019-01-11T12:47:10.365Z,947.20
2019-01-11T12:48:18.468Z,947.20
2019-01-11T12:49:26.483Z,947.16
2019-01-11T12:50:34.528Z,947.19
2019-01-11T12:51:42.596Z,947.21
2019-01-11T12:52:50.720Z,947.14
2019-01-11T12:53:58.717Z,947.15
2019-01-11T12:55:06.780Z,947.16
2019-01-11T12:56:14.831Z,947.21
2019-01-11T12:57:22.912Z,947.17
2019-01-11T12:58:31.033Z,947.15
2019-01-11T12:59:38.989Z,947.15
2019-01-11T13:00:47.085Z,947.16
2019-01-11T13:01:55.125Z,947.13
2019-01-11T13:03:03.187Z,947.11
2019-01-11T13:04:11.266Z,947.12
2019-01-11T13:05:19.307Z,947.09
2019-01-11T13:06:27.353Z,947.03
2019-01-11T13:07:35.403Z,947.00
2019-01-11T13:08:43.561Z,947.04
2019-01-11T13:09:51.527Z,947.02
2019-01-11T13:10:59.594Z,947.00
2019-01-11T13:12:07.650Z,946.97
2019-01-11T13:13:15.695Z,946.99
2019-01-11T13:14:23.855Z,947.04
2019-01-11T13:15:31.828Z,946.94
2019-01-11T13:16:39.876Z,946.92
2019-01-11T13:17:47.939Z,946.91
2019-01-11T13:18:55.993Z,946.90
2019-01-11T13:20:04.143Z,946.94
2019-01-11T13:21:12.126Z,946.93
2019-01-11T13:22:20.159Z,946.93
2019-01-11T13:23:28.231Z,946.93
2019-01-11T13:24:36.327Z,946.91
2019-01-11T13:25:44.433Z,946.93
2019-01-11T13:26:52.403Z,946.93
2019-01-11T13:28:00.473Z,946.86
2019-01-11T13:29:08.520Z,946.87
2019-01-11T13:30:16.584Z,946.88
2019-01-11T13:31:24.733Z,946.87
2019-01-11T13:32:32.699Z,946.88
2019-01-11T13:33:40.724Z,946.88
2019-01-11T13:34:48.807Z,946.90
2019-01-11T13:35:56.856Z,946.91
2019-01-11T13:37:05.015Z,946.92
2019-01-11T13:38:12.978Z,946.87
2019-01-11T13:39:21.114Z,946.85
2019-01-11T13:40:29.108Z,946.83
2019-01-11T13:41:37.152Z,946.84
2019-01-11T13:42:45.260Z,946.84
2019-01-11T13:43:53.268Z,946.84
2019-01-11T13:45:01.314Z,946.77
2019-01-11T13:46:09.384Z,946.80
2019-01-11T13:47:17.447Z,946.83
2019-01-11T13:48:25.553Z,946.86
2019-01-11T13:49:33.559Z,946.93
2019-01-11T13:50:41.621Z,946.92
2019-01-11T13:51:49.674Z,946.93
2019-01-11T13:52:57.843Z,946.95
2019-01-11T13:54:05.784Z,946.95
2019-01-11T13:55:13.933Z,946.97
2019-01-11T13:56:21.906Z,946.93
2019-01-11T13:57:29.964Z,946.94
2019-01-11T13:58:38.128Z,946.96
2019-01-11T13:59:46.088Z,946.94
2019-01-11T14:00:54.140Z,946.94
2019-01-11T14:02:02.201Z,946.97
2019-01-11T14:03:10.264Z,946.98
2019-01-11T14:04:18.407Z,946.97
2019-01-11T14:05:26.384Z,946.95
2019-01-11T14:06:34.417Z,946.95
2019-01-11T14:07:42.500Z,946.92
2019-01-11T14:08:50.514Z,946.86